sensor_id;sensor_type;location;lat;lon;timestamp;P1;durP1;ratioP1;P2;durP2;ratioP2
70008;SDS011;59542;37.950;-122.338;2023-02-15T02:46:52;5.22;;;1.38;;
70008;SDS011;59542;37.950;-122.338;2023-02-15T02:49:30;4.28;;;1.70;;
70008;SDS011;59542;37.950;-122.338;2023-02-15T02:52:01;2.17;;;1.20;;
70008;SDS011;59542;37.950;-122.338;2023-02-15T02:54:30;6.53;;;1.63;;
70008;SDS011;59542;37.950;-122.338;2023-02-15T02:57:01;4.45;;;1.40;;
70008;SDS011;59542;37.950;-122.338;2023-02-15T02:59:32;3.75;;;1.13;;
70008;SDS011;59542;37.950;-122.338;2023-02-15T03:02:04;4.97;;;1.38;;
70008;SDS011;59542;37.950;-122.338;2023-02-15T03:04:39;3.50;;;1.17;;
70008;SDS011;59542;37.950;-122.338;2023-02-15T03:07:17;3.28;;;1.13;;
70008;SDS011;59542;37.950;-122.338;2023-02-15T03:09:54;2.47;;;1.08;;
70008;SDS011;59542;37.950;-122.338;2023-02-15T03:12:24;3.88;;;0.90;;
70008;SDS011;59542;37.950;-122.338;2023-02-15T03:14:56;2.85;;;1.20;;
70008;SDS011;59542;37.950;-122.338;2023-02-15T03:17:31;2.10;;;0.77;;
70008;SDS011;59542;37.950;-122.338;2023-02-15T03:20:01;2.58;;;1.02;;
70008;SDS011;59542;37.950;-122.338;2023-02-15T03:25:21;2.40;;;1.00;;
70008;SDS011;59542;37.950;-122.338;2023-02-15T03:27:55;3.42;;;1.23;;
70008;SDS011;59542;37.950;-122.338;2023-02-15T03:30:26;2.58;;;0.90;;
70008;SDS011;59542;37.950;-122.338;2023-02-15T03:32:55;2.75;;;1.13;;
70008;SDS011;59542;37.950;-122.338;2023-02-15T03:35:24;1.45;;;0.60;;
70008;SDS011;59542;37.950;-122.338;2023-02-15T03:37:57;3.15;;;0.90;;
70008;SDS011;59542;37.950;-122.338;2023-02-15T03:40:28;2.13;;;0.70;;
70008;SDS011;59542;37.950;-122.338;2023-02-15T03:43:21;1.98;;;0.70;;
70008;SDS011;59542;37.950;-122.338;2023-02-15T03:45:49;1.27;;;0.63;;
70008;SDS011;59542;37.950;-122.338;2023-02-15T03:48:30;1.38;;;0.88;;
70008;SDS011;59542;37.950;-122.338;2023-02-15T03:51:05;1.45;;;0.98;;
70008;SDS011;59542;37.950;-122.338;2023-02-15T03:53:53;2.00;;;0.80;;
70008;SDS011;59542;37.950;-122.338;2023-02-15T03:56:21;3.13;;;0.73;;
70008;SDS011;59542;37.950;-122.338;2023-02-15T03:58:47;2.22;;;0.63;;
70008;SDS011;59542;37.950;-122.338;2023-02-15T04:04:19;2.28;;;0.95;;
70008;SDS011;59542;37.950;-122.338;2023-02-15T04:06:48;1.90;;;0.93;;
70008;SDS011;59542;37.950;-122.338;2023-02-15T04:09:14;2.42;;;1.27;;
70008;SDS011;59542;37.950;-122.338;2023-02-15T04:11:58;1.83;;;1.05;;
70008;SDS011;59542;37.950;-122.338;2023-02-15T04:14:25;3.72;;;1.33;;
70008;SDS011;59542;37.950;-122.338;2023-02-15T04:17:09;3.47;;;1.20;;
70008;SDS011;59542;37.950;-122.338;2023-02-15T04:19:36;3.08;;;1.08;;
70008;SDS011;59542;37.950;-122.338;2023-02-15T04:22:21;1.48;;;0.77;;
70008;SDS011;59542;37.950;-122.338;2023-02-15T04:25:05;3.63;;;0.75;;
70008;SDS011;59542;37.950;-122.338;2023-02-15T04:27:45;2.70;;;0.90;;
70008;SDS011;59542;37.950;-122.338;2023-02-15T04:30:13;1.70;;;0.98;;
70008;SDS011;59542;37.950;-122.338;2023-02-15T04:32:41;2.70;;;1.15;;
70008;SDS011;59542;37.950;-122.338;2023-02-15T04:35:07;2.35;;;1.25;;
70008;SDS011;59542;37.950;-122.338;2023-02-15T04:37:34;4.35;;;1.33;;
70008;SDS011;59542;37.950;-122.338;2023-02-15T04:40:01;3.05;;;0.98;;
70008;SDS011;59542;37.950;-122.338;2023-02-15T04:42:28;3.85;;;1.25;;
70008;SDS011;59542;37.950;-122.338;2023-02-15T04:44:54;3.33;;;1.20;;
70008;SDS011;59542;37.950;-122.338;2023-02-15T04:47:21;2.40;;;1.08;;
70008;SDS011;59542;37.950;-122.338;2023-02-15T04:49:47;3.28;;;1.13;;
70008;SDS011;59542;37.950;-122.338;2023-02-15T04:52:14;2.15;;;1.00;;
70008;SDS011;59542;37.950;-122.338;2023-02-15T04:54:42;3.28;;;0.80;;
70008;SDS011;59542;37.950;-122.338;2023-02-15T04:57:09;4.07;;;1.40;;
70008;SDS011;59542;37.950;-122.338;2023-02-15T04:59:35;3.20;;;1.30;;
70008;SDS011;59542;37.950;-122.338;2023-02-15T05:02:01;2.20;;;0.95;;
70008;SDS011;59542;37.950;-122.338;2023-02-15T05:04:28;3.25;;;1.08;;
70008;SDS011;59542;37.950;-122.338;2023-02-15T05:06:54;5.97;;;0.98;;
70008;SDS011;59542;37.950;-122.338;2023-02-15T05:09:20;4.28;;;1.05;;
70008;SDS011;59542;37.950;-122.338;2023-02-15T05:11:46;2.90;;;1.20;;
70008;SDS011;59542;37.950;-122.338;2023-02-15T05:14:13;3.97;;;1.20;;
70008;SDS011;59542;37.950;-122.338;2023-02-15T05:16:39;2.95;;;1.00;;
70008;SDS011;59542;37.950;-122.338;2023-02-15T05:19:05;3.85;;;1.10;;
70008;SDS011;59542;37.950;-122.338;2023-02-15T05:21:32;4.90;;;0.90;;
70008;SDS011;59542;37.950;-122.338;2023-02-15T05:23:58;4.95;;;1.17;;
70008;SDS011;59542;37.950;-122.338;2023-02-15T05:26:25;2.50;;;1.10;;
70008;SDS011;59542;37.950;-122.338;2023-02-15T05:29:09;6.00;;;1.45;;
70008;SDS011;59542;37.950;-122.338;2023-02-15T05:31:36;3.28;;;1.20;;
70008;SDS011;59542;37.950;-122.338;2023-02-15T05:34:03;2.88;;;1.00;;
70008;SDS011;59542;37.950;-122.338;2023-02-15T05:36:29;2.15;;;1.13;;
70008;SDS011;59542;37.950;-122.338;2023-02-15T05:38:55;2.58;;;0.85;;
70008;SDS011;59542;37.950;-122.338;2023-02-15T05:41:22;2.35;;;0.90;;
70008;SDS011;59542;37.950;-122.338;2023-02-15T05:43:48;5.15;;;1.17;;
70008;SDS011;59542;37.950;-122.338;2023-02-15T05:46:14;4.18;;;1.00;;
70008;SDS011;59542;37.950;-122.338;2023-02-15T05:48:40;3.97;;;0.88;;
70008;SDS011;59542;37.950;-122.338;2023-02-15T05:51:08;1.27;;;0.70;;
70008;SDS011;59542;37.950;-122.338;2023-02-15T05:53:41;2.45;;;0.68;;
70008;SDS011;59542;37.950;-122.338;2023-02-15T05:56:08;4.80;;;1.02;;
70008;SDS011;59542;37.950;-122.338;2023-02-15T05:58:37;2.65;;;1.00;;
70008;SDS011;59542;37.950;-122.338;2023-02-15T06:01:08;2.20;;;0.90;;
70008;SDS011;59542;37.950;-122.338;2023-02-15T06:03:35;2.15;;;1.00;;
70008;SDS011;59542;37.950;-122.338;2023-02-15T06:06:02;5.90;;;1.02;;
70008;SDS011;59542;37.950;-122.338;2023-02-15T06:08:30;3.30;;;1.00;;
70008;SDS011;59542;37.950;-122.338;2023-02-15T06:10:57;2.60;;;0.93;;
70008;SDS011;59542;37.950;-122.338;2023-02-15T06:13:23;2.63;;;1.05;;
70008;SDS011;59542;37.950;-122.338;2023-02-15T06:15:49;4.05;;;1.23;;
70008;SDS011;59542;37.950;-122.338;2023-02-15T06:18:16;2.88;;;1.02;;
70008;SDS011;59542;37.950;-122.338;2023-02-15T06:20:42;4.68;;;1.25;;
70008;SDS011;59542;37.950;-122.338;2023-02-15T06:23:10;2.63;;;1.30;;
70008;SDS011;59542;37.950;-122.338;2023-02-15T06:25:36;5.05;;;1.73;;
70008;SDS011;59542;37.950;-122.338;2023-02-15T06:28:03;4.18;;;1.40;;
70008;SDS011;59542;37.950;-122.338;2023-02-15T06:30:29;2.72;;;1.10;;
70008;SDS011;59542;37.950;-122.338;2023-02-15T06:32:55;4.75;;;1.38;;
70008;SDS011;59542;37.950;-122.338;2023-02-15T06:35:22;4.32;;;1.50;;
70008;SDS011;59542;37.950;-122.338;2023-02-15T06:37:48;6.47;;;1.38;;
70008;SDS011;59542;37.950;-122.338;2023-02-15T06:40:15;3.83;;;1.35;;
70008;SDS011;59542;37.950;-122.338;2023-02-15T06:42:41;2.65;;;1.60;;
70008;SDS011;59542;37.950;-122.338;2023-02-15T06:45:08;2.88;;;1.20;;
70008;SDS011;59542;37.950;-122.338;2023-02-15T06:47:35;1.92;;;1.08;;
70008;SDS011;59542;37.950;-122.338;2023-02-15T06:50:02;3.70;;;1.17;;
70008;SDS011;59542;37.950;-122.338;2023-02-15T06:52:33;6.03;;;1.58;;
70008;SDS011;59542;37.950;-122.338;2023-02-15T06:54:59;4.18;;;1.23;;
70008;SDS011;59542;37.950;-122.338;2023-02-15T06:57:25;3.28;;;1.48;;
70008;SDS011;59542;37.950;-122.338;2023-02-15T06:59:51;5.20;;;1.55;;
70008;SDS011;59542;37.950;-122.338;2023-02-15T07:02:18;2.95;;;1.10;;
70008;SDS011;59542;37.950;-122.338;2023-02-15T07:04:44;6.15;;;1.23;;
70008;SDS011;59542;37.950;-122.338;2023-02-15T07:07:12;2.00;;;1.20;;
70008;SDS011;59542;37.950;-122.338;2023-02-15T07:09:38;3.67;;;1.02;;
70008;SDS011;59542;37.950;-122.338;2023-02-15T07:12:05;3.22;;;1.08;;
70008;SDS011;59542;37.950;-122.338;2023-02-15T07:14:50;3.47;;;1.00;;
70008;SDS011;59542;37.950;-122.338;2023-02-15T07:17:17;2.55;;;0.88;;
70008;SDS011;59542;37.950;-122.338;2023-02-15T07:19:43;1.83;;;0.93;;
70008;SDS011;59542;37.950;-122.338;2023-02-15T07:22:09;2.75;;;1.10;;
70008;SDS011;59542;37.950;-122.338;2023-02-15T07:24:36;2.47;;;0.90;;
70008;SDS011;59542;37.950;-122.338;2023-02-15T07:27:02;3.83;;;0.93;;
70008;SDS011;59542;37.950;-122.338;2023-02-15T07:29:28;1.90;;;0.90;;
70008;SDS011;59542;37.950;-122.338;2023-02-15T07:31:55;2.65;;;0.90;;
70008;SDS011;59542;37.950;-122.338;2023-02-15T07:34:21;1.42;;;0.80;;
70008;SDS011;59542;37.950;-122.338;2023-02-15T07:36:47;1.17;;;0.73;;
70008;SDS011;59542;37.950;-122.338;2023-02-15T07:39:17;1.25;;;0.70;;
70008;SDS011;59542;37.950;-122.338;2023-02-15T07:41:43;2.15;;;0.77;;
70008;SDS011;59542;37.950;-122.338;2023-02-15T07:44:13;1.65;;;0.70;;
70008;SDS011;59542;37.950;-122.338;2023-02-15T07:46:40;1.95;;;0.77;;
70008;SDS011;59542;37.950;-122.338;2023-02-15T07:49:06;1.30;;;0.70;;
70008;SDS011;59542;37.950;-122.338;2023-02-15T07:51:33;1.90;;;0.70;;
70008;SDS011;59542;37.950;-122.338;2023-02-15T07:53:59;0.80;;;0.60;;
70008;SDS011;59542;37.950;-122.338;2023-02-15T07:56:26;1.75;;;0.80;;
70008;SDS011;59542;37.950;-122.338;2023-02-15T07:58:52;1.85;;;0.65;;
70008;SDS011;59542;37.950;-122.338;2023-02-15T08:01:26;1.20;;;0.80;;
70008;SDS011;59542;37.950;-122.338;2023-02-15T08:03:55;1.10;;;0.65;;
70008;SDS011;59542;37.950;-122.338;2023-02-15T08:06:23;2.38;;;0.70;;
70008;SDS011;59542;37.950;-122.338;2023-02-15T08:08:51;2.40;;;0.85;;
70008;SDS011;59542;37.950;-122.338;2023-02-15T08:11:36;1.35;;;0.70;;
70008;SDS011;59542;37.950;-122.338;2023-02-15T08:14:06;1.15;;;0.65;;
70008;SDS011;59542;37.950;-122.338;2023-02-15T08:16:50;1.27;;;0.70;;
70008;SDS011;59542;37.950;-122.338;2023-02-15T08:22:00;1.45;;;0.55;;
70008;SDS011;59542;37.950;-122.338;2023-02-15T08:24:30;0.85;;;0.52;;
70008;SDS011;59542;37.950;-122.338;2023-02-15T08:26:58;2.47;;;1.15;;
70008;SDS011;59542;37.950;-122.338;2023-02-15T08:29:26;3.83;;;1.20;;
70008;SDS011;59542;37.950;-122.338;2023-02-15T08:31:54;1.98;;;0.85;;
70008;SDS011;59542;37.950;-122.338;2023-02-15T08:34:24;1.58;;;0.90;;
70008;SDS011;59542;37.950;-122.338;2023-02-15T08:36:50;2.17;;;0.73;;
70008;SDS011;59542;37.950;-122.338;2023-02-15T08:39:16;2.20;;;0.77;;
70008;SDS011;59542;37.950;-122.338;2023-02-15T08:41:43;1.45;;;0.70;;
70008;SDS011;59542;37.950;-122.338;2023-02-15T08:44:11;1.10;;;0.60;;
70008;SDS011;59542;37.950;-122.338;2023-02-15T08:46:39;4.82;;;0.70;;
70008;SDS011;59542;37.950;-122.338;2023-02-15T08:49:07;1.52;;;0.73;;
70008;SDS011;59542;37.950;-122.338;2023-02-15T08:51:35;1.27;;;0.65;;
70008;SDS011;59542;37.950;-122.338;2023-02-15T08:54:05;1.30;;;0.70;;
70008;SDS011;59542;37.950;-122.338;2023-02-15T08:56:34;2.55;;;0.60;;
70008;SDS011;59542;37.950;-122.338;2023-02-15T08:59:03;0.70;;;0.60;;
70008;SDS011;59542;37.950;-122.338;2023-02-15T09:01:30;1.45;;;0.70;;
70008;SDS011;59542;37.950;-122.338;2023-02-15T09:03:59;1.05;;;0.70;;
70008;SDS011;59542;37.950;-122.338;2023-02-15T09:06:38;0.70;;;0.60;;
70008;SDS011;59542;37.950;-122.338;2023-02-15T09:09:07;1.23;;;0.70;;
70008;SDS011;59542;37.950;-122.338;2023-02-15T09:11:34;2.03;;;0.77;;
70008;SDS011;59542;37.950;-122.338;2023-02-15T09:14:12;0.68;;;0.50;;
70008;SDS011;59542;37.950;-122.338;2023-02-15T09:16:40;1.75;;;0.90;;
70008;SDS011;59542;37.950;-122.338;2023-02-15T09:19:14;0.70;;;0.60;;
70008;SDS011;59542;37.950;-122.338;2023-02-15T09:21:41;1.90;;;0.70;;
70008;SDS011;59542;37.950;-122.338;2023-02-15T09:24:08;1.77;;;0.82;;
70008;SDS011;59542;37.950;-122.338;2023-02-15T09:26:36;1.33;;;0.40;;
70008;SDS011;59542;37.950;-122.338;2023-02-15T09:29:05;0.88;;;0.45;;
70008;SDS011;59542;37.950;-122.338;2023-02-15T09:31:33;1.13;;;0.70;;
70008;SDS011;59542;37.950;-122.338;2023-02-15T09:34:03;0.60;;;0.50;;
70008;SDS011;59542;37.950;-122.338;2023-02-15T09:36:33;1.92;;;0.47;;
70008;SDS011;59542;37.950;-122.338;2023-02-15T09:44:29;2.47;;;0.47;;
70008;SDS011;59542;37.950;-122.338;2023-02-15T09:52:36;5.05;;;0.50;;
70008;SDS011;59542;37.950;-122.338;2023-02-15T10:22:46;0.97;;;0.30;;
70008;SDS011;59542;37.950;-122.338;2023-02-15T10:25:46;1.35;;;0.60;;
70008;SDS011;59542;37.950;-122.338;2023-02-15T10:28:29;0.57;;;0.43;;
70008;SDS011;59542;37.950;-122.338;2023-02-15T10:36:51;1.23;;;1.00;;
70008;SDS011;59542;37.950;-122.338;2023-02-15T10:39:38;1.17;;;0.93;;
70008;SDS011;59542;37.950;-122.338;2023-02-15T10:55:28;1.33;;;0.57;;
70008;SDS011;59542;37.950;-122.338;2023-02-15T10:58:05;1.35;;;0.70;;
70008;SDS011;59542;37.950;-122.338;2023-02-15T11:00:50;1.45;;;0.70;;
70008;SDS011;59542;37.950;-122.338;2023-02-15T11:09:03;0.95;;;0.60;;
70008;SDS011;59542;37.950;-122.338;2023-02-15T11:11:39;1.35;;;0.50;;
70008;SDS011;59542;37.950;-122.338;2023-02-15T11:14:14;1.47;;;0.60;;
70008;SDS011;59542;37.950;-122.338;2023-02-15T11:16:46;0.88;;;0.50;;
70008;SDS011;59542;37.950;-122.338;2023-02-15T11:19:18;1.10;;;0.68;;
70008;SDS011;59542;37.950;-122.338;2023-02-15T11:21:55;0.90;;;0.45;;
70008;SDS011;59542;37.950;-122.338;2023-02-15T11:24:26;1.70;;;1.10;;
70008;SDS011;59542;37.950;-122.338;2023-02-15T11:27:10;4.28;;;1.40;;
70008;SDS011;59542;37.950;-122.338;2023-02-15T11:30:04;2.30;;;1.23;;
70008;SDS011;59542;37.950;-122.338;2023-02-15T11:32:39;2.55;;;1.30;;
70008;SDS011;59542;37.950;-122.338;2023-02-15T11:40:42;1.40;;;0.90;;
70008;SDS011;59542;37.950;-122.338;2023-02-15T11:43:20;1.63;;;0.60;;
70008;SDS011;59542;37.950;-122.338;2023-02-15T11:45:47;1.70;;;0.98;;
70008;SDS011;59542;37.950;-122.338;2023-02-15T11:48:14;1.63;;;0.90;;
70008;SDS011;59542;37.950;-122.338;2023-02-15T11:50:41;3.22;;;0.70;;
70008;SDS011;59542;37.950;-122.338;2023-02-15T11:53:12;0.68;;;0.45;;
70008;SDS011;59542;37.950;-122.338;2023-02-15T11:55:44;1.55;;;0.70;;
70008;SDS011;59542;37.950;-122.338;2023-02-15T12:04:16;1.75;;;1.02;;
70008;SDS011;59542;37.950;-122.338;2023-02-15T12:06:48;3.65;;;1.13;;
70008;SDS011;59542;37.950;-122.338;2023-02-15T12:09:36;2.35;;;1.42;;
70008;SDS011;59542;37.950;-122.338;2023-02-15T12:12:24;1.45;;;1.15;;
70008;SDS011;59542;37.950;-122.338;2023-02-15T12:14:52;1.55;;;1.17;;
70008;SDS011;59542;37.950;-122.338;2023-02-15T12:17:20;1.85;;;1.17;;
70008;SDS011;59542;37.950;-122.338;2023-02-15T12:19:50;1.67;;;0.90;;
70008;SDS011;59542;37.950;-122.338;2023-02-15T12:22:22;1.70;;;1.08;;
70008;SDS011;59542;37.950;-122.338;2023-02-15T12:24:52;1.83;;;1.05;;
70008;SDS011;59542;37.950;-122.338;2023-02-15T12:27:21;1.58;;;0.85;;
70008;SDS011;59542;37.950;-122.338;2023-02-15T12:29:53;1.30;;;0.50;;
70008;SDS011;59542;37.950;-122.338;2023-02-15T12:32:31;0.95;;;0.60;;
70008;SDS011;59542;37.950;-122.338;2023-02-15T12:35:13;1.65;;;0.90;;
70008;SDS011;59542;37.950;-122.338;2023-02-15T12:40:42;1.00;;;0.80;;
70008;SDS011;59542;37.950;-122.338;2023-02-15T12:43:34;1.63;;;0.95;;
70008;SDS011;59542;37.950;-122.338;2023-02-15T12:51:52;2.22;;;0.88;;
70008;SDS011;59542;37.950;-122.338;2023-02-15T12:57:01;1.92;;;0.73;;
70008;SDS011;59542;37.950;-122.338;2023-02-15T12:59:50;2.15;;;0.80;;
70008;SDS011;59542;37.950;-122.338;2023-02-15T13:02:19;2.50;;;0.82;;
70008;SDS011;59542;37.950;-122.338;2023-02-15T13:04:49;1.77;;;0.70;;
70008;SDS011;59542;37.950;-122.338;2023-02-15T13:07:16;1.48;;;0.60;;
70008;SDS011;59542;37.950;-122.338;2023-02-15T13:09:43;0.85;;;0.70;;
70008;SDS011;59542;37.950;-122.338;2023-02-15T13:14:46;1.60;;;0.90;;
70008;SDS011;59542;37.950;-122.338;2023-02-15T13:17:17;1.48;;;0.90;;
70008;SDS011;59542;37.950;-122.338;2023-02-15T13:19:52;1.15;;;0.70;;
70008;SDS011;59542;37.950;-122.338;2023-02-15T13:22:25;0.82;;;0.63;;
70008;SDS011;59542;37.950;-122.338;2023-02-15T13:25:01;0.77;;;0.70;;
70008;SDS011;59542;37.950;-122.338;2023-02-15T13:27:36;1.25;;;0.80;;
70008;SDS011;59542;37.950;-122.338;2023-02-15T13:30:13;1.30;;;0.95;;
70008;SDS011;59542;37.950;-122.338;2023-02-15T13:32:52;0.88;;;0.77;;
70008;SDS011;59542;37.950;-122.338;2023-02-15T13:35:23;1.63;;;0.93;;
70008;SDS011;59542;37.950;-122.338;2023-02-15T13:38:09;0.88;;;0.70;;
70008;SDS011;59542;37.950;-122.338;2023-02-15T13:40:58;1.60;;;0.63;;
70008;SDS011;59542;37.950;-122.338;2023-02-15T14:06:01;0.75;;;0.50;;
70008;SDS011;59542;37.950;-122.338;2023-02-15T14:11:52;3.13;;;0.70;;
70008;SDS011;59542;37.950;-122.338;2023-02-15T14:14:46;2.03;;;0.70;;
70008;SDS011;59542;37.950;-122.338;2023-02-15T14:20:07;0.88;;;0.50;;
70008;SDS011;59542;37.950;-122.338;2023-02-15T14:22:48;0.73;;;0.52;;
70008;SDS011;59542;37.950;-122.338;2023-02-15T14:25:40;1.15;;;0.60;;
70008;SDS011;59542;37.950;-122.338;2023-02-15T14:28:18;2.88;;;0.60;;
70008;SDS011;59542;37.950;-122.338;2023-02-15T14:30:51;1.73;;;0.70;;
70008;SDS011;59542;37.950;-122.338;2023-02-15T14:36:10;0.95;;;0.60;;
70008;SDS011;59542;37.950;-122.338;2023-02-15T14:41:31;2.25;;;0.55;;
70008;SDS011;59542;37.950;-122.338;2023-02-15T14:44:11;1.92;;;0.68;;
70008;SDS011;59542;37.950;-122.338;2023-02-15T14:49:26;1.58;;;0.60;;
70008;SDS011;59542;37.950;-122.338;2023-02-15T14:52:03;1.10;;;0.40;;
70008;SDS011;59542;37.950;-122.338;2023-02-15T15:02:16;1.45;;;0.68;;
70008;SDS011;59542;37.950;-122.338;2023-02-15T15:05:00;1.05;;;0.60;;
70008;SDS011;59542;37.950;-122.338;2023-02-15T15:07:38;1.48;;;0.50;;
70008;SDS011;59542;37.950;-122.338;2023-02-15T15:12:45;1.00;;;0.50;;
70008;SDS011;59542;37.950;-122.338;2023-02-15T15:17:56;1.30;;;0.70;;
70008;SDS011;59542;37.950;-122.338;2023-02-15T15:25:44;0.90;;;0.63;;
70008;SDS011;59542;37.950;-122.338;2023-02-15T15:33:43;1.55;;;0.80;;
70008;SDS011;59542;37.950;-122.338;2023-02-15T15:41:53;1.30;;;0.68;;
70008;SDS011;59542;37.950;-122.338;2023-02-15T15:49:58;1.65;;;0.80;;
70008;SDS011;59542;37.950;-122.338;2023-02-15T15:52:26;3.58;;;1.02;;
70008;SDS011;59542;37.950;-122.338;2023-02-15T15:54:57;3.42;;;1.00;;
70008;SDS011;59542;37.950;-122.338;2023-02-15T15:57:39;2.13;;;1.08;;
70008;SDS011;59542;37.950;-122.338;2023-02-15T16:02:53;1.40;;;1.00;;
70008;SDS011;59542;37.950;-122.338;2023-02-15T16:05:22;2.47;;;1.02;;
70008;SDS011;59542;37.950;-122.338;2023-02-15T16:07:49;2.28;;;0.90;;
70008;SDS011;59542;37.950;-122.338;2023-02-15T16:10:25;3.42;;;1.10;;
70008;SDS011;59542;37.950;-122.338;2023-02-15T16:12:53;2.67;;;0.85;;
70008;SDS011;59542;37.950;-122.338;2023-02-15T16:15:24;1.77;;;0.90;;
70008;SDS011;59542;37.950;-122.338;2023-02-15T16:17:57;2.20;;;1.00;;
70008;SDS011;59542;37.950;-122.338;2023-02-15T16:20:34;3.90;;;1.20;;
70008;SDS011;59542;37.950;-122.338;2023-02-15T16:28:51;2.05;;;1.35;;
70008;SDS011;59542;37.950;-122.338;2023-02-15T16:31:19;2.55;;;1.00;;
70008;SDS011;59542;37.950;-122.338;2023-02-15T16:33:53;1.48;;;0.90;;
70008;SDS011;59542;37.950;-122.338;2023-02-15T16:36:21;1.02;;;0.52;;
70008;SDS011;59542;37.950;-122.338;2023-02-15T16:39:06;1.17;;;0.50;;
70008;SDS011;59542;37.950;-122.338;2023-02-15T16:41:35;0.95;;;0.40;;
70008;SDS011;59542;37.950;-122.338;2023-02-15T16:44:04;1.15;;;0.50;;
70008;SDS011;59542;37.950;-122.338;2023-02-15T16:46:42;0.40;;;0.30;;
70008;SDS011;59542;37.950;-122.338;2023-02-15T16:49:20;2.47;;;0.60;;
70008;SDS011;59542;37.950;-122.338;2023-02-15T16:54:26;2.35;;;0.52;;
70008;SDS011;59542;37.950;-122.338;2023-02-15T16:56:56;0.80;;;0.50;;
70008;SDS011;59542;37.950;-122.338;2023-02-15T16:59:31;0.43;;;0.35;;
70008;SDS011;59542;37.950;-122.338;2023-02-15T17:02:03;2.08;;;0.90;;
70008;SDS011;59542;37.950;-122.338;2023-02-15T17:04:31;0.45;;;0.45;;
70008;SDS011;59542;37.950;-122.338;2023-02-15T17:09:28;1.42;;;0.88;;
70008;SDS011;59542;37.950;-122.338;2023-02-15T17:11:55;0.80;;;0.60;;
70008;SDS011;59542;37.950;-122.338;2023-02-15T17:14:29;3.22;;;0.63;;
70008;SDS011;59542;37.950;-122.338;2023-02-15T17:17:00;2.25;;;0.70;;
70008;SDS011;59542;37.950;-122.338;2023-02-15T17:19:33;3.90;;;2.28;;
70008;SDS011;59542;37.950;-122.338;2023-02-15T17:22:17;1.00;;;0.57;;
70008;SDS011;59542;37.950;-122.338;2023-02-15T17:24:50;1.85;;;0.32;;
70008;SDS011;59542;37.950;-122.338;2023-02-15T17:27:25;0.30;;;0.20;;
70008;SDS011;59542;37.950;-122.338;2023-02-15T17:30:00;0.63;;;0.20;;
70008;SDS011;59542;37.950;-122.338;2023-02-15T17:32:29;0.28;;;0.20;;
70008;SDS011;59542;37.950;-122.338;2023-02-15T17:34:59;1.35;;;0.38;;
70008;SDS011;59542;37.950;-122.338;2023-02-15T17:37:54;1.27;;;0.70;;
70008;SDS011;59542;37.950;-122.338;2023-02-15T17:40:28;0.50;;;0.30;;
70008;SDS011;59542;37.950;-122.338;2023-02-15T17:42:56;0.65;;;0.20;;
70008;SDS011;59542;37.950;-122.338;2023-02-15T17:45:24;0.20;;;0.20;;
70008;SDS011;59542;37.950;-122.338;2023-02-15T17:47:56;0.60;;;0.30;;
70008;SDS011;59542;37.950;-122.338;2023-02-15T17:50:27;0.30;;;0.20;;
70008;SDS011;59542;37.950;-122.338;2023-02-15T17:52:54;0.30;;;0.20;;
70008;SDS011;59542;37.950;-122.338;2023-02-15T17:55:22;0.38;;;0.20;;
70008;SDS011;59542;37.950;-122.338;2023-02-15T17:58:05;1.08;;;0.20;;
70008;SDS011;59542;37.950;-122.338;2023-02-15T18:00:40;0.57;;;0.30;;
70008;SDS011;59542;37.950;-122.338;2023-02-15T18:03:38;0.30;;;0.20;;
70008;SDS011;59542;37.950;-122.338;2023-02-15T18:06:28;0.32;;;0.20;;
70008;SDS011;59542;37.950;-122.338;2023-02-15T18:09:13;0.20;;;0.20;;
70008;SDS011;59542;37.950;-122.338;2023-02-15T18:12:00;0.30;;;0.10;;
70008;SDS011;59542;37.950;-122.338;2023-02-15T18:14:28;3.50;;;0.35;;
70008;SDS011;59542;37.950;-122.338;2023-02-15T18:16:55;0.17;;;0.15;;
70008;SDS011;59542;37.950;-122.338;2023-02-15T18:19:23;0.10;;;0.10;;
70008;SDS011;59542;37.950;-122.338;2023-02-15T18:21:51;0.20;;;0.20;;
70008;SDS011;59542;37.950;-122.338;2023-02-15T18:24:21;1.08;;;0.20;;
70008;SDS011;59542;37.950;-122.338;2023-02-15T18:26:48;0.20;;;0.20;;
70008;SDS011;59542;37.950;-122.338;2023-02-15T18:29:15;0.63;;;0.30;;
70008;SDS011;59542;37.950;-122.338;2023-02-15T18:31:42;0.75;;;0.30;;
70008;SDS011;59542;37.950;-122.338;2023-02-15T18:34:19;0.10;;;0.10;;
70008;SDS011;59542;37.950;-122.338;2023-02-15T18:36:49;0.10;;;0.10;;
70008;SDS011;59542;37.950;-122.338;2023-02-15T18:41:54;0.20;;;0.13;;
70008;SDS011;59542;37.950;-122.338;2023-02-15T18:44:20;0.63;;;0.30;;
70008;SDS011;59542;37.950;-122.338;2023-02-15T18:46:46;0.52;;;0.22;;
70008;SDS011;59542;37.950;-122.338;2023-02-15T18:49:13;0.50;;;0.20;;
70008;SDS011;59542;37.950;-122.338;2023-02-15T18:51:39;0.90;;;0.20;;
70008;SDS011;59542;37.950;-122.338;2023-02-15T18:54:11;0.38;;;0.30;;
70008;SDS011;59542;37.950;-122.338;2023-02-15T18:56:42;0.75;;;0.20;;
70008;SDS011;59542;37.950;-122.338;2023-02-15T18:59:15;0.22;;;0.20;;
70008;SDS011;59542;37.950;-122.338;2023-02-15T19:01:41;0.38;;;0.30;;
70008;SDS011;59542;37.950;-122.338;2023-02-15T19:04:08;0.55;;;0.30;;
70008;SDS011;59542;37.950;-122.338;2023-02-15T19:06:34;1.58;;;0.20;;
70008;SDS011;59542;37.950;-122.338;2023-02-15T19:09:02;0.35;;;0.22;;
70008;SDS011;59542;37.950;-122.338;2023-02-15T19:11:28;0.38;;;0.30;;
70008;SDS011;59542;37.950;-122.338;2023-02-15T19:13:54;0.68;;;0.25;;
70008;SDS011;59542;37.950;-122.338;2023-02-15T19:16:31;0.77;;;0.40;;
70008;SDS011;59542;37.950;-122.338;2023-02-15T19:18:59;0.50;;;0.40;;
70008;SDS011;59542;37.950;-122.338;2023-02-15T19:21:27;1.10;;;0.40;;
70008;SDS011;59542;37.950;-122.338;2023-02-15T19:23:57;0.40;;;0.30;;
70008;SDS011;59542;37.950;-122.338;2023-02-15T19:26:29;0.38;;;0.30;;
70008;SDS011;59542;37.950;-122.338;2023-02-15T19:28:58;0.57;;;0.20;;
70008;SDS011;59542;37.950;-122.338;2023-02-15T19:31:27;6.57;;;0.30;;
70008;SDS011;59542;37.950;-122.338;2023-02-15T19:33:53;0.40;;;0.22;;
70008;SDS011;59542;37.950;-122.338;2023-02-15T19:36:19;0.32;;;0.30;;
70008;SDS011;59542;37.950;-122.338;2023-02-15T19:38:48;0.40;;;0.20;;
70008;SDS011;59542;37.950;-122.338;2023-02-15T19:41:22;0.20;;;0.20;;
70008;SDS011;59542;37.950;-122.338;2023-02-15T19:46:21;0.68;;;0.20;;
70008;SDS011;59542;37.950;-122.338;2023-02-15T19:48:51;0.38;;;0.20;;
70008;SDS011;59542;37.950;-122.338;2023-02-15T19:51:18;0.38;;;0.20;;
70008;SDS011;59542;37.950;-122.338;2023-02-15T19:53:47;0.30;;;0.20;;
70008;SDS011;59542;37.950;-122.338;2023-02-15T19:56:19;1.08;;;0.30;;
70008;SDS011;59542;37.950;-122.338;2023-02-15T19:58:48;0.30;;;0.20;;
70008;SDS011;59542;37.950;-122.338;2023-02-15T20:01:16;0.70;;;0.30;;
70008;SDS011;59542;37.950;-122.338;2023-02-15T20:03:43;0.40;;;0.30;;
70008;SDS011;59542;37.950;-122.338;2023-02-15T20:06:13;0.60;;;0.30;;
70008;SDS011;59542;37.950;-122.338;2023-02-15T20:08:40;0.63;;;0.38;;
70008;SDS011;59542;37.950;-122.338;2023-02-15T20:11:10;0.20;;;0.20;;
70008;SDS011;59542;37.950;-122.338;2023-02-15T20:13:38;2.15;;;0.30;;
70008;SDS011;59542;37.950;-122.338;2023-02-15T20:16:05;0.20;;;0.20;;
70008;SDS011;59542;37.950;-122.338;2023-02-15T20:18:33;0.30;;;0.30;;
70008;SDS011;59542;37.950;-122.338;2023-02-15T20:20:59;0.20;;;0.13;;
70008;SDS011;59542;37.950;-122.338;2023-02-15T20:23:27;3.00;;;0.30;;
70008;SDS011;59542;37.950;-122.338;2023-02-15T20:25:57;1.67;;;0.30;;